Delhi, Illinois
Current Conditions -  °F | °C
As of 2:54 PM on Tuesday 27 Jan 2015 (Local Time) from KSET Reporting Station
Overcast Overcast  
Wind Chill: 38°   Ceiling: 3100
Heat Index: 43°   Visibility: 10mi
Dew Point: 31°   Wind: 8mph
Humidity: 62%   Direction: 30°NNE
Pressure: 30.17"   Gusts: NA
Location:  39.1259°N, 90.3475°W
Report Text: KSET 272054Z AUTO 03007KT 10SM OVC031 06/M01 A3017 RMK AO2 SLP218 T00611006 53003
Loading
Personal Weather Stations






























Interactive Weather Map New forecast layout! Learn more

10-Day Weather Forecast

Advertisements
Track Severe Weather on mobile